Western Springs, Illinois
Current Conditions -  °F | °C
As of 11:53 PM on Friday 19 Dec 2014 (Local Time) from KMDW Reporting Station
Overcast Overcast  
Wind Chill: 28°   Ceiling: 2700
Heat Index: 33°   Visibility: 10mi
Dew Point: 25°   Wind: 6mph
Humidity: 72%   Direction: 210°SSW
Pressure: 30.27"   Gusts: NA
Location:  41.81°N, 87.9°W
Report Text: KMDW 200553Z 21005KT 10SM OVC027 01/M04 A3027 RMK AO2 SLP262 T00061039 10011 20006 400111017 55002
Loading
Personal Weather Stations






























Interactive Weather Map New forecast layout! Learn more

10-Day Weather Forecast

Advertisements
Track Severe Weather on mobile